createdAt,value
2022-11-22T00:01:26.972Z,34.93
2022-11-22T00:03:56.558Z,35.60
2022-11-22T00:06:24.738Z,37.37
2022-11-22T00:08:52.867Z,41.33
2022-11-22T00:11:21.083Z,37.10
2022-11-22T00:13:49.410Z,36.30
2022-11-22T00:16:17.641Z,34.70
2022-11-22T00:18:45.850Z,38.93
2022-11-22T00:21:15.425Z,39.43
2022-11-22T00:23:44.250Z,34.93
2022-11-22T00:26:12.524Z,39.27
2022-11-22T00:28:40.872Z,37.60
2022-11-22T00:31:09.246Z,42.07
2022-11-22T00:33:37.461Z,40.83
2022-11-22T00:36:06.279Z,45.40
2022-11-22T00:38:35.907Z,38.43
2022-11-22T00:41:04.237Z,38.77
2022-11-22T00:43:32.713Z,42.80
2022-11-22T00:46:01.337Z,39.17
2022-11-22T00:48:29.951Z,48.77
2022-11-22T00:50:58.234Z,46.60
2022-11-22T00:53:26.996Z,43.07
2022-11-22T00:55:56.598Z,45.23
2022-11-22T00:58:24.828Z,44.03
2022-11-22T01:00:56.452Z,48.83
2022-11-22T01:03:25.188Z,45.53
2022-11-22T01:05:53.608Z,53.13
2022-11-22T01:08:21.895Z,51.23
2022-11-22T01:10:50.306Z,47.23
2022-11-22T01:13:19.895Z,51.57
2022-11-22T01:15:48.135Z,48.30
2022-11-22T01:18:16.336Z,54.83
2022-11-22T01:20:44.674Z,48.87
2022-11-22T01:23:12.965Z,47.17
2022-11-22T01:25:44.726Z,55.07
2022-11-22T01:28:13.404Z,66.40
2022-11-22T01:30:44.431Z,59.13
2022-11-22T01:33:13.264Z,51.63
2022-11-22T01:35:41.662Z,53.53
2022-11-22T01:38:10.480Z,52.60
2022-11-22T01:40:38.964Z,49.70
2022-11-22T01:43:16.332Z,51.80
2022-11-22T01:45:51.709Z,49.70
2022-11-22T01:48:35.517Z,48.70
2022-11-22T01:51:08.620Z,54.37
2022-11-22T01:53:39.779Z,49.77
2022-11-22T01:56:14.682Z,49.33
2022-11-22T01:58:46.556Z,49.47
2022-11-22T02:01:16.409Z,48.53
2022-11-22T02:03:48.366Z,51.63
2022-11-22T02:06:18.611Z,53.23
2022-11-22T02:08:55.214Z,51.10
2022-11-22T02:11:27.390Z,51.87
2022-11-22T02:13:58.635Z,47.60
2022-11-22T02:16:28.265Z,44.63
2022-11-22T02:18:56.471Z,46.70
2022-11-22T02:21:24.904Z,43.10
2022-11-22T02:23:59.747Z,47.80
2022-11-22T02:26:31.017Z,45.77
2022-11-22T02:29:06.910Z,45.67
2022-11-22T02:31:43.469Z,45.93
2022-11-22T02:34:12.427Z,42.37
2022-11-22T02:36:45.514Z,48.37
2022-11-22T02:39:17.512Z,44.93
2022-11-22T02:41:49.051Z,40.87
2022-11-22T02:44:17.940Z,46.40
2022-11-22T02:46:51.660Z,45.53
2022-11-22T02:49:21.199Z,43.50
2022-11-22T02:51:49.985Z,42.97
2022-11-22T02:54:19.868Z,44.17
2022-11-22T02:56:49.649Z,42.43
2022-11-22T02:59:17.904Z,42.17
2022-11-22T03:01:47.472Z,42.63
2022-11-22T03:04:24.805Z,42.20
2022-11-22T03:06:58.250Z,43.30
2022-11-22T03:09:28.643Z,40.27
2022-11-22T03:11:58.577Z,42.03
2022-11-22T03:14:27.189Z,38.60
2022-11-22T03:16:55.688Z,41.77
2022-11-22T03:19:24.072Z,42.87
2022-11-22T03:21:52.351Z,42.73
2022-11-22T03:24:20.833Z,41.30
2022-11-22T03:26:50.318Z,38.63
2022-11-22T03:29:20.275Z,41.57
2022-11-22T03:31:49.207Z,45.20
2022-11-22T03:34:17.855Z,40.30
2022-11-22T03:36:46.157Z,36.87
2022-11-22T03:39:14.421Z,37.10
2022-11-22T03:41:42.655Z,40.77
2022-11-22T03:44:10.928Z,41.47
2022-11-22T03:46:40.487Z,39.73
2022-11-22T03:49:08.871Z,40.87
2022-11-22T03:51:37.093Z,38.33
2022-11-22T03:54:05.770Z,39.10
2022-11-22T03:56:34.096Z,38.93
2022-11-22T03:59:02.446Z,38.93
2022-11-22T04:01:30.925Z,37.50
2022-11-22T04:04:00.585Z,39.80
2022-11-22T04:06:28.808Z,38.40
2022-11-22T04:08:57.012Z,40.00
2022-11-22T04:11:25.325Z,35.07
2022-11-22T04:14:11.289Z,37.97
2022-11-22T04:16:39.533Z,39.73
2022-11-22T04:19:09.367Z,41.40
2022-11-22T04:21:36.612Z,41.73
2022-11-22T04:24:25.278Z,38.70
2022-11-22T04:26:55.288Z,37.23
2022-11-22T04:29:24.107Z,39.37
2022-11-22T04:32:10.643Z,43.13
2022-11-22T04:34:40.237Z,37.47
2022-11-22T04:37:08.644Z,38.63
2022-11-22T04:39:36.970Z,35.97
2022-11-22T04:42:23.245Z,40.27
2022-11-22T04:44:51.500Z,38.07
2022-11-22T04:47:34.392Z,40.20
2022-11-22T04:50:26.213Z,36.57
2022-11-22T04:52:55.887Z,35.77
2022-11-22T04:55:24.528Z,39.43
2022-11-22T04:57:59.206Z,32.93
2022-11-22T05:00:29.122Z,34.40
2022-11-22T05:02:58.312Z,37.83
2022-11-22T05:05:28.679Z,37.13
2022-11-22T05:07:57.015Z,37.83
2022-11-22T05:10:27.055Z,35.67
2022-11-22T05:12:56.071Z,39.30
2022-11-22T05:15:24.604Z,35.50
2022-11-22T05:17:52.925Z,37.93
2022-11-22T05:20:21.240Z,38.20
2022-11-22T05:23:08.133Z,40.97
2022-11-22T05:25:36.352Z,38.17
2022-11-22T05:28:04.603Z,36.90
2022-11-22T05:30:32.894Z,34.40
2022-11-22T05:33:01.133Z,38.00
2022-11-22T05:35:29.564Z,35.67
2022-11-22T05:37:59.495Z,34.33
2022-11-22T05:40:28.352Z,35.53
2022-11-22T05:42:57.993Z,41.23
2022-11-22T05:45:26.688Z,33.43
2022-11-22T05:47:54.920Z,38.23
2022-11-22T05:50:23.945Z,35.60
2022-11-22T05:52:52.207Z,36.30
2022-11-22T05:55:21.934Z,39.47
2022-11-22T05:57:50.177Z,37.07
2022-11-22T06:00:20.419Z,37.37
2022-11-22T06:02:48.691Z,35.83
2022-11-22T06:05:17.143Z,35.63
2022-11-22T06:07:45.821Z,36.93
2022-11-22T06:10:14.193Z,43.20
2022-11-22T06:12:43.770Z,39.80
2022-11-22T06:15:12.557Z,37.37
2022-11-22T06:17:40.779Z,38.60
2022-11-22T06:20:11.137Z,38.60
2022-11-22T06:22:39.463Z,39.07
2022-11-22T06:25:09.382Z,38.87
2022-11-22T06:27:37.645Z,39.30
2022-11-22T06:30:09.688Z,41.10
2022-11-22T06:32:38.062Z,36.17
2022-11-22T06:35:07.407Z,38.17
2022-11-22T06:37:35.647Z,39.30
2022-11-22T06:40:04.239Z,37.70
2022-11-22T06:42:32.472Z,40.40
2022-11-22T06:45:00.697Z,39.63
2022-11-22T06:47:30.216Z,39.03
2022-11-22T06:49:58.453Z,45.73
2022-11-22T06:52:26.694Z,38.93
2022-11-22T06:54:54.928Z,42.20
2022-11-22T06:57:23.079Z,39.87
2022-11-22T06:59:51.278Z,36.80
2022-11-22T07:02:19.519Z,35.47
2022-11-22T07:05:09.797Z,37.17
2022-11-22T07:07:37.383Z,39.77
2022-11-22T07:10:06.830Z,36.23
2022-11-22T07:12:35.136Z,37.77
2022-11-22T07:15:03.418Z,40.67
2022-11-22T07:17:31.688Z,38.63
2022-11-22T07:20:01.556Z,35.30
2022-11-22T07:22:29.780Z,37.40
2022-11-22T07:24:58.009Z,35.23
2022-11-22T07:27:26.283Z,35.57
2022-11-22T07:29:54.507Z,39.37
2022-11-22T07:32:22.774Z,38.40
2022-11-22T07:34:51.568Z,38.67
2022-11-22T07:37:21.168Z,34.03
2022-11-22T07:39:49.496Z,41.63
2022-11-22T07:42:21.151Z,35.73
2022-11-22T07:44:51.949Z,37.17
2022-11-22T07:47:23.057Z,35.10
2022-11-22T07:49:51.701Z,37.43
2022-11-22T07:52:21.307Z,33.60
2022-11-22T07:54:49.659Z,37.33
2022-11-22T07:57:17.857Z,34.90
2022-11-22T07:59:46.012Z,36.47
2022-11-22T08:02:14.286Z,38.90
2022-11-22T08:04:42.509Z,33.17
2022-11-22T08:07:11.116Z,31.67
2022-11-22T08:09:40.731Z,36.80
2022-11-22T08:12:09.099Z,32.80
2022-11-22T08:14:37.632Z,34.37
2022-11-22T08:17:05.868Z,30.33
2022-11-22T08:19:35.933Z,31.00
2022-11-22T08:22:04.149Z,34.47
2022-11-22T08:24:32.790Z,32.93
2022-11-22T08:27:02.607Z,29.73
2022-11-22T08:29:31.080Z,27.53
2022-11-22T08:31:59.819Z,35.40
2022-11-22T08:34:28.065Z,30.07
2022-11-22T08:36:56.365Z,25.00
2022-11-22T08:39:24.645Z,27.53
2022-11-22T08:41:52.893Z,26.83
2022-11-22T08:44:22.566Z,22.57
2022-11-22T08:46:51.726Z,26.73
2022-11-22T08:49:20.092Z,27.67
2022-11-22T08:51:48.445Z,23.33
2022-11-22T08:54:17.350Z,24.37
2022-11-22T08:56:45.664Z,24.23
2022-11-22T08:59:13.906Z,21.83
2022-11-22T09:01:43.673Z,21.20
2022-11-22T09:04:12.113Z,16.60
2022-11-22T09:09:44.457Z,15.13
2022-11-22T09:12:13.066Z,31.20
2022-11-22T09:14:41.694Z,18.47
2022-11-22T09:17:17.313Z,17.03
2022-11-22T09:19:46.241Z,17.30
2022-11-22T09:22:14.510Z,17.40
2022-11-22T09:24:42.660Z,15.93
2022-11-22T09:27:10.896Z,15.50
2022-11-22T09:29:39.119Z,15.73
2022-11-22T09:32:12.087Z,11.30
2022-11-22T09:34:40.313Z,13.13
2022-11-22T09:37:08.552Z,17.93
2022-11-22T09:39:36.736Z,14.27
2022-11-22T09:42:38.542Z,14.27
2022-11-22T09:45:36.684Z,10.73
2022-11-22T09:48:23.098Z,18.03
2022-11-22T09:51:04.290Z,12.40
2022-11-22T09:53:39.314Z,14.40
2022-11-22T09:56:13.279Z,14.97
2022-11-22T09:58:47.696Z,10.60
2022-11-22T10:01:23.487Z,12.90
2022-11-22T10:04:01.733Z,12.37
2022-11-22T10:06:35.257Z,12.07
2022-11-22T10:09:24.503Z,13.50
2022-11-22T10:11:58.372Z,19.27
2022-11-22T10:14:46.408Z,10.10
2022-11-22T10:17:31.083Z,13.43
2022-11-22T10:20:08.179Z,8.50
2022-11-22T10:22:36.671Z,11.00
2022-11-22T10:25:17.294Z,9.33
2022-11-22T10:27:50.188Z,9.03
2022-11-22T10:30:21.791Z,10.50
2022-11-22T10:33:01.744Z,10.03
2022-11-22T10:35:49.946Z,11.30
2022-11-22T10:39:07.429Z,10.23
2022-11-22T10:41:51.394Z,12.00
2022-11-22T10:44:34.676Z,8.17
2022-11-22T10:47:13.533Z,6.77
2022-11-22T10:49:53.734Z,10.97
2022-11-22T10:52:35.494Z,6.73
2022-11-22T10:55:19.551Z,8.13
2022-11-22T10:57:58.840Z,5.70
2022-11-22T11:00:31.631Z,8.53
2022-11-22T11:03:27.255Z,8.40
2022-11-22T11:06:21.740Z,8.90
2022-11-22T11:09:48.108Z,6.83
2022-11-22T11:11:46.905Z,8.87
2022-11-22T11:14:30.004Z,9.60
2022-11-22T11:16:59.420Z,9.03
2022-11-22T11:19:31.623Z,4.67
2022-11-22T11:22:12.997Z,8.53
2022-11-22T11:24:43.750Z,9.83
2022-11-22T11:27:13.238Z,8.27
2022-11-22T11:29:45.121Z,6.83
2022-11-22T11:32:17.770Z,7.93
2022-11-22T11:34:59.491Z,8.03
2022-11-22T11:37:34.765Z,6.57
2022-11-22T11:40:04.751Z,7.10
2022-11-22T11:42:37.118Z,7.50
2022-11-22T11:45:29.166Z,9.50
2022-11-22T11:47:57.556Z,8.20
2022-11-22T11:50:28.791Z,9.53
2022-11-22T11:53:04.052Z,7.93
2022-11-22T11:55:37.331Z,7.00
2022-11-22T11:58:17.921Z,7.67
2022-11-22T12:00:47.200Z,5.20
2022-11-22T12:03:20.382Z,10.23
2022-11-22T12:05:48.622Z,6.50
2022-11-22T12:08:33.141Z,5.80
2022-11-22T12:11:08.840Z,6.80
2022-11-22T12:14:12.323Z,6.07
2022-11-22T12:16:36.907Z,4.93
2022-11-22T12:19:24.394Z,5.37
2022-11-22T12:22:00.223Z,6.27
2022-11-22T12:25:02.642Z,7.10
2022-11-22T12:27:26.998Z,8.53
2022-11-22T12:29:55.467Z,6.23
2022-11-22T12:32:29.291Z,6.97
2022-11-22T12:35:03.279Z,7.27
2022-11-22T12:37:38.222Z,7.00
2022-11-22T12:40:16.284Z,9.47
2022-11-22T12:42:50.226Z,8.83
2022-11-22T12:45:28.556Z,8.73
2022-11-22T12:48:02.029Z,5.63
2022-11-22T12:50:39.292Z,4.93
2022-11-22T12:53:14.697Z,4.70
2022-11-22T12:55:49.967Z,7.07
2022-11-22T12:58:25.743Z,6.57
2022-11-22T13:01:08.697Z,6.67
2022-11-22T13:03:41.424Z,8.40
2022-11-22T13:06:11.880Z,5.00
2022-11-22T13:08:48.806Z,5.87
2022-11-22T13:11:28.437Z,6.90
2022-11-22T13:14:04.648Z,6.47
2022-11-22T13:16:33.649Z,7.07
2022-11-22T13:19:05.675Z,4.90
2022-11-22T13:21:46.808Z,6.77
2022-11-22T13:24:30.749Z,4.97
2022-11-22T13:27:11.225Z,3.57
2022-11-22T13:29:43.185Z,5.90
2022-11-22T13:32:20.838Z,6.37
2022-11-22T13:35:19.596Z,5.87
2022-11-22T13:37:51.480Z,8.90
2022-11-22T13:40:31.151Z,9.93
2022-11-22T13:43:51.730Z,6.33
2022-11-22T13:46:54.073Z,5.30
2022-11-22T13:49:49.464Z,6.83
2022-11-22T13:52:52.195Z,5.97
2022-11-22T13:55:30.575Z,5.93
2022-11-22T13:58:55.588Z,10.50
2022-11-22T14:02:03.171Z,4.40
2022-11-22T14:04:43.412Z,7.17
2022-11-22T14:07:38.420Z,6.77
2022-11-22T14:10:33.090Z,4.50
2022-11-22T14:13:20.485Z,6.13
2022-11-22T14:16:01.141Z,5.80
2022-11-22T14:18:52.401Z,5.13
2022-11-22T14:21:42.067Z,6.90
2022-11-22T14:24:25.754Z,3.60
2022-11-22T14:27:01.513Z,7.50
2022-11-22T14:30:05.247Z,4.73
2022-11-22T14:32:56.960Z,8.27
2022-11-22T14:35:31.426Z,7.23
2022-11-22T14:38:11.424Z,4.00
2022-11-22T14:40:40.949Z,6.57
2022-11-22T14:43:28.904Z,5.47
2022-11-22T14:46:02.891Z,4.23
2022-11-22T14:48:38.571Z,4.57
2022-11-22T14:51:15.539Z,6.67
2022-11-22T14:53:47.484Z,5.60
2022-11-22T14:56:19.165Z,8.17
2022-11-22T14:58:59.984Z,5.30
2022-11-22T15:02:07.312Z,6.37
2022-11-22T15:09:10.055Z,4.77
2022-11-22T15:09:10.450Z,7.80
2022-11-22T15:11:36.575Z,6.73
2022-11-22T15:14:49.435Z,6.83
2022-11-22T15:57:48.925Z,5.57
2022-11-22T16:00:24.383Z,4.60
2022-11-22T16:02:56.691Z,7.80
2022-11-22T16:06:05.313Z,8.87
2022-11-22T16:08:21.941Z,6.53
2022-11-22T16:10:52.080Z,6.53
2022-11-22T16:13:29.935Z,4.07
2022-11-22T16:16:20.447Z,5.13
2022-11-22T16:18:50.813Z,5.63
2022-11-22T16:21:29.305Z,4.77
2022-11-22T16:24:16.829Z,6.70
2022-11-22T16:26:56.285Z,6.73
2022-11-22T16:29:32.882Z,5.00
2022-11-22T16:32:03.437Z,4.73
2022-11-22T16:34:31.730Z,5.07
2022-11-22T16:37:00.048Z,5.03
2022-11-22T16:39:29.166Z,7.13
2022-11-22T16:41:57.691Z,7.00
2022-11-22T16:44:26.577Z,7.50
2022-11-22T16:46:56.293Z,9.13
2022-11-22T16:49:24.484Z,8.90
2022-11-22T16:51:52.841Z,6.97
2022-11-22T16:54:23.809Z,7.93
2022-11-22T16:56:52.147Z,5.30
2022-11-22T16:59:20.399Z,12.23
2022-11-22T17:01:48.839Z,6.97
2022-11-22T17:04:24.247Z,6.87
2022-11-22T17:06:52.782Z,6.47
2022-11-22T17:09:21.281Z,5.93
2022-11-22T17:11:49.616Z,4.77
2022-11-22T17:14:19.634Z,7.70
2022-11-22T17:16:47.997Z,4.73
2022-11-22T17:19:45.410Z,6.20
2022-11-22T17:22:07.085Z,5.23
2022-11-22T17:24:35.909Z,6.23
2022-11-22T17:27:04.281Z,6.63
2022-11-22T17:29:50.742Z,6.60
2022-11-22T17:32:19.902Z,5.40
2022-11-22T17:34:48.248Z,10.23
2022-11-22T17:37:17.977Z,6.50
2022-11-22T17:39:47.649Z,5.37
2022-11-22T17:42:18.128Z,8.47
2022-11-22T17:44:46.321Z,7.70
2022-11-22T17:47:14.564Z,7.37
2022-11-22T17:49:43.179Z,4.37
2022-11-22T17:52:11.462Z,5.53
2022-11-22T17:54:41.180Z,4.20
2022-11-22T17:57:09.496Z,5.23
2022-11-22T17:59:37.722Z,7.00
2022-11-22T18:02:06.629Z,4.10
2022-11-22T18:04:38.399Z,5.60
2022-11-22T18:07:06.774Z,5.50
2022-11-22T18:09:35.573Z,5.93
2022-11-22T18:12:05.849Z,3.83
2022-11-22T18:14:34.667Z,6.23
2022-11-22T18:17:02.978Z,4.73
2022-11-22T18:19:33.271Z,5.23
2022-11-22T18:22:01.741Z,4.90
2022-11-22T18:24:30.016Z,8.63
2022-11-22T18:26:58.368Z,4.30
2022-11-22T18:29:43.442Z,6.43
2022-11-22T18:32:12.442Z,6.00
2022-11-22T18:34:41.450Z,3.57
2022-11-22T18:37:09.805Z,5.90
2022-11-22T18:39:39.988Z,6.13
2022-11-22T18:42:12.143Z,4.77
2022-11-22T18:44:41.932Z,5.83
2022-11-22T18:47:10.331Z,3.63
2022-11-22T18:49:38.635Z,5.43
2022-11-22T18:52:09.672Z,3.00
2022-11-22T18:54:40.211Z,5.27
2022-11-22T18:57:08.971Z,4.43
2022-11-22T18:59:37.324Z,4.60
2022-11-22T19:02:07.482Z,5.70
2022-11-22T19:04:35.912Z,4.97
2022-11-22T19:07:04.188Z,2.80
2022-11-22T19:09:32.375Z,3.70
2022-11-22T19:12:02.512Z,6.40
2022-11-22T19:14:31.073Z,7.90
2022-11-22T19:16:59.493Z,4.23
2022-11-22T19:19:32.143Z,8.60
2022-11-22T19:22:02.928Z,3.87
2022-11-22T19:24:31.595Z,3.73
2022-11-22T19:27:00.132Z,5.10
2022-11-22T19:30:07.706Z,5.33
2022-11-22T19:32:38.350Z,4.07
2022-11-22T19:35:36.630Z,4.47
2022-11-22T19:38:10.473Z,6.87
2022-11-22T19:40:52.954Z,6.17
2022-11-22T19:43:23.265Z,5.17
2022-11-22T19:45:53.229Z,5.77
2022-11-22T19:48:35.459Z,4.60
2022-11-22T19:51:11.989Z,5.77
2022-11-22T19:53:45.236Z,4.23
2022-11-22T19:56:18.396Z,4.93
2022-11-22T19:58:55.641Z,3.07
2022-11-22T20:01:40.601Z,4.10
2022-11-22T20:04:16.744Z,5.03
2022-11-22T20:09:32.543Z,6.67
2022-11-22T20:12:08.651Z,4.27
2022-11-22T20:14:39.110Z,3.33
2022-11-22T20:17:21.989Z,4.10
2022-11-22T20:19:52.279Z,6.13
2022-11-22T20:22:42.168Z,4.20
2022-11-22T20:25:15.413Z,5.50
2022-11-22T20:27:48.355Z,5.80
2022-11-22T20:30:24.351Z,7.93
2022-11-22T20:32:54.590Z,5.13
2022-11-22T20:35:23.456Z,4.43
2022-11-22T20:37:54.552Z,6.67
2022-11-22T20:40:25.457Z,5.87
2022-11-22T20:43:06.136Z,5.33
2022-11-22T20:45:35.548Z,7.33
2022-11-22T20:48:08.170Z,6.63
2022-11-22T20:50:38.029Z,9.57
2022-11-22T20:53:23.556Z,9.33
2022-11-22T20:55:55.099Z,7.67
2022-11-22T20:58:24.814Z,7.27
2022-11-22T21:00:53.503Z,7.47
2022-11-22T21:03:50.852Z,11.03
2022-11-22T21:06:21.762Z,9.50
2022-11-22T21:08:53.158Z,7.87
2022-11-22T21:11:25.368Z,8.13
2022-11-22T21:13:56.392Z,13.03
2022-11-22T21:16:28.612Z,11.23
2022-11-22T21:19:05.784Z,9.37
2022-11-22T21:21:42.540Z,8.27
2022-11-22T21:24:28.917Z,8.67
2022-11-22T21:27:01.817Z,9.93
2022-11-22T21:29:37.141Z,10.57
2022-11-22T21:32:08.922Z,10.30
2022-11-22T21:34:38.652Z,10.37
2022-11-22T21:37:07.825Z,12.33
2022-11-22T21:39:39.840Z,10.80
2022-11-22T21:42:09.844Z,12.00
2022-11-22T21:44:43.004Z,13.33
2022-11-22T21:47:15.335Z,10.17
2022-11-22T21:49:45.043Z,10.07
2022-11-22T21:52:16.573Z,11.90
2022-11-22T21:54:47.099Z,15.37
2022-11-22T21:57:15.474Z,13.20
2022-11-22T21:59:47.012Z,13.27
2022-11-22T22:05:18.655Z,13.53
2022-11-22T22:07:53.147Z,13.80
2022-11-22T22:10:23.657Z,14.43
2022-11-22T22:12:53.739Z,17.23
2022-11-22T22:15:24.371Z,15.03
2022-11-22T22:18:05.712Z,17.90
2022-11-22T22:20:35.569Z,16.50
2022-11-22T22:23:10.744Z,17.20
2022-11-22T22:26:00.684Z,17.13
2022-11-22T22:28:33.063Z,17.53
2022-11-22T22:31:13.630Z,18.03
2022-11-22T22:33:47.290Z,17.40
2022-11-22T22:36:19.155Z,17.87
2022-11-22T22:39:12.164Z,17.37
2022-11-22T22:41:56.165Z,18.17
2022-11-22T22:47:22.966Z,19.47
2022-11-22T22:50:02.570Z,19.30
2022-11-22T22:52:43.921Z,19.23
2022-11-22T22:55:15.518Z,22.07
2022-11-22T22:57:55.322Z,20.17
2022-11-22T23:00:24.737Z,21.63
2022-11-22T23:02:55.786Z,22.53
2022-11-22T23:05:24.750Z,23.77
2022-11-22T23:07:55.908Z,23.87
2022-11-22T23:10:49.756Z,25.47
2022-11-22T23:13:51.069Z,26.27
2022-11-22T23:16:22.527Z,23.87
2022-11-22T23:18:52.043Z,24.17
2022-11-22T23:21:27.095Z,24.47
2022-11-22T23:24:02.272Z,28.13
2022-11-22T23:26:34.849Z,28.30
2022-11-22T23:29:07.480Z,26.90
2022-11-22T23:31:37.803Z,27.43
2022-11-22T23:34:21.776Z,28.43
2022-11-22T23:36:53.612Z,26.87
2022-11-22T23:39:27.680Z,28.20
2022-11-22T23:41:56.164Z,28.87
2022-11-22T23:44:41.019Z,30.33
2022-11-22T23:47:09.325Z,28.57
2022-11-22T23:49:39.917Z,29.63
2022-11-22T23:52:09.760Z,29.83
2022-11-22T23:54:39.317Z,29.10
2022-11-22T23:57:08.156Z,29.53
2022-11-22T23:59:38.173Z,29.70
